createdAt,value
2022-12-08T15:22:56.216Z,46.02
2022-12-08T15:25:22.615Z,44.99
2022-12-08T15:27:50.785Z,44.49
2022-12-08T15:30:17.319Z,44.11
2022-12-08T15:32:43.725Z,43.74
2022-12-08T15:35:10.131Z,43.00
2022-12-08T15:37:36.500Z,42.14
2022-12-08T15:40:03.544Z,42.19
2022-12-08T15:42:30.213Z,41.55
2022-12-08T15:44:56.616Z,41.36
2022-12-08T15:47:22.988Z,41.23
2022-12-08T15:49:49.369Z,40.51
2022-12-08T15:52:15.735Z,40.56
2022-12-08T15:54:42.122Z,39.87
2022-12-08T15:57:19.525Z,40.03
2022-12-08T15:59:51.554Z,39.89
2022-12-08T16:02:22.347Z,40.28
2022-12-08T20:27:27.678Z,47.63
2022-12-08T20:29:54.088Z,46.97
2022-12-08T20:32:20.501Z,45.72
2022-12-08T20:34:46.920Z,44.49
2022-12-08T20:37:13.294Z,44.49
2022-12-08T20:39:39.716Z,44.08
2022-12-08T20:42:06.102Z,43.52
2022-12-08T20:44:32.471Z,43.46
2022-12-08T20:46:58.862Z,43.30
2022-12-08T20:49:28.517Z,43.11
2022-12-08T20:51:59.344Z,42.94
2022-12-08T20:54:25.772Z,43.07
2022-12-08T20:56:52.317Z,42.93
2022-12-08T20:59:18.895Z,43.42
2022-12-08T21:01:45.476Z,43.81
2022-12-08T21:04:12.205Z,44.33
2022-12-08T21:06:38.846Z,44.62
2022-12-08T21:09:05.372Z,44.67
2022-12-08T21:11:31.984Z,45.50
2022-12-08T21:13:58.518Z,45.75
2022-12-08T21:16:25.135Z,46.31
2022-12-08T21:18:51.693Z,46.88
2022-12-08T21:21:18.197Z,47.05
2022-12-08T21:23:44.715Z,47.34
2022-12-08T21:26:11.164Z,47.33
2022-12-08T21:28:37.911Z,47.39
2022-12-08T21:31:04.326Z,47.79
2022-12-08T21:33:31.045Z,48.14
2022-12-08T21:35:57.798Z,47.91
2022-12-08T21:38:24.388Z,48.84
2022-12-08T21:40:50.803Z,48.57
2022-12-08T21:43:17.183Z,48.31
2022-12-08T21:45:43.644Z,48.53
2022-12-08T21:48:11.869Z,49.48
2022-12-08T21:50:38.678Z,49.28
2022-12-08T21:53:05.233Z,49.89
2022-12-08T21:55:31.895Z,49.32
2022-12-08T21:57:58.445Z,49.61
2022-12-08T22:00:24.924Z,49.72
2022-12-08T22:02:51.750Z,50.61
2022-12-08T22:05:18.336Z,50.37
2022-12-08T22:07:44.832Z,50.70
2022-12-08T22:10:11.791Z,50.33
2022-12-08T22:12:38.597Z,50.33
2022-12-08T22:15:04.974Z,49.23
2022-12-08T22:17:31.465Z,48.58
2022-12-08T22:19:57.971Z,48.44
2022-12-08T22:22:24.526Z,48.07
2022-12-08T22:24:50.946Z,47.17
2022-12-08T22:27:17.334Z,47.01
2022-12-08T22:29:43.746Z,46.46
2022-12-08T22:32:10.357Z,46.45
2022-12-08T22:34:36.831Z,46.22
2022-12-08T22:37:03.201Z,46.05
2022-12-08T22:39:29.720Z,45.51
2022-12-08T22:41:56.129Z,44.88
2022-12-08T22:44:22.507Z,44.82
2022-12-08T22:46:48.948Z,44.83
2022-12-08T22:49:15.330Z,44.81
2022-12-08T22:51:41.736Z,44.55
2022-12-08T22:54:08.136Z,44.01
2022-12-08T22:56:34.507Z,43.94
2022-12-08T22:59:01.007Z,43.73
2022-12-08T23:01:27.465Z,43.73
2022-12-08T23:03:54.201Z,43.83
2022-12-08T23:06:21.041Z,43.66
2022-12-08T23:08:47.648Z,44.02
2022-12-08T23:11:14.396Z,44.20
2022-12-08T23:13:40.928Z,44.45
2022-12-08T23:16:07.357Z,44.52
2022-12-08T23:18:33.922Z,44.32
2022-12-08T23:21:00.325Z,44.51
2022-12-08T23:23:26.802Z,44.58
2022-12-08T23:25:53.361Z,44.53
2022-12-08T23:28:19.790Z,45.07
2022-12-08T23:30:46.210Z,45.68
2022-12-08T23:33:12.796Z,45.23
2022-12-08T23:35:39.415Z,45.23
2022-12-08T23:38:05.851Z,45.37
2022-12-08T23:40:32.350Z,45.32
2022-12-08T23:42:58.755Z,45.40
2022-12-08T23:45:25.169Z,45.45
2022-12-08T23:47:51.815Z,45.14
2022-12-08T23:50:18.276Z,45.24
2022-12-08T23:52:44.828Z,45.20
2022-12-08T23:55:11.338Z,44.73
2022-12-08T23:57:37.759Z,44.85
